sensor_id;sensor_type;location;lat;lon;timestamp;P1;durP1;ratioP1;P2;durP2;ratioP2
74291;SDS011;62687;55.738;37.516;2023-04-24T00:00:15;18.92;;;9.00;;
74291;SDS011;62687;55.738;37.516;2023-04-24T00:03:01;18.90;;;9.45;;
74291;SDS011;62687;55.738;37.516;2023-04-24T00:05:46;17.38;;;9.40;;
74291;SDS011;62687;55.738;37.516;2023-04-24T00:08:30;21.40;;;9.73;;
74291;SDS011;62687;55.738;37.516;2023-04-24T00:11:14;16.02;;;9.05;;
74291;SDS011;62687;55.738;37.516;2023-04-24T00:13:59;13.98;;;8.77;;
74291;SDS011;62687;55.738;37.516;2023-04-24T00:16:43;16.90;;;9.32;;
74291;SDS011;62687;55.738;37.516;2023-04-24T00:19:28;16.15;;;8.68;;
74291;SDS011;62687;55.738;37.516;2023-04-24T00:22:13;22.08;;;9.20;;
74291;SDS011;62687;55.738;37.516;2023-04-24T00:24:58;21.05;;;9.48;;
74291;SDS011;62687;55.738;37.516;2023-04-24T00:27:42;16.90;;;7.50;;
74291;SDS011;62687;55.738;37.516;2023-04-24T00:30:26;19.73;;;8.27;;
74291;SDS011;62687;55.738;37.516;2023-04-24T00:33:10;17.35;;;8.90;;
74291;SDS011;62687;55.738;37.516;2023-04-24T00:35:54;19.20;;;9.50;;
74291;SDS011;62687;55.738;37.516;2023-04-24T00:38:39;18.98;;;8.48;;
74291;SDS011;62687;55.738;37.516;2023-04-24T00:41:24;17.75;;;8.23;;
74291;SDS011;62687;55.738;37.516;2023-04-24T00:44:09;16.77;;;8.10;;
74291;SDS011;62687;55.738;37.516;2023-04-24T00:46:52;20.77;;;8.10;;
74291;SDS011;62687;55.738;37.516;2023-04-24T00:49:38;17.42;;;8.30;;
74291;SDS011;62687;55.738;37.516;2023-04-24T00:52:22;17.50;;;8.20;;
74291;SDS011;62687;55.738;37.516;2023-04-24T00:55:08;18.60;;;7.90;;
74291;SDS011;62687;55.738;37.516;2023-04-24T01:00:37;18.70;;;8.02;;
74291;SDS011;62687;55.738;37.516;2023-04-24T01:03:24;16.55;;;8.45;;
74291;SDS011;62687;55.738;37.516;2023-04-24T01:06:10;21.30;;;8.40;;
74291;SDS011;62687;55.738;37.516;2023-04-24T01:08:54;21.23;;;8.27;;
74291;SDS011;62687;55.738;37.516;2023-04-24T01:11:39;17.92;;;9.02;;
74291;SDS011;62687;55.738;37.516;2023-04-24T01:14:26;18.50;;;8.30;;
74291;SDS011;62687;55.738;37.516;2023-04-24T01:17:11;16.00;;;8.57;;
74291;SDS011;62687;55.738;37.516;2023-04-24T01:19:55;24.35;;;8.95;;
74291;SDS011;62687;55.738;37.516;2023-04-24T01:22:40;22.10;;;8.75;;
74291;SDS011;62687;55.738;37.516;2023-04-24T01:25:25;18.98;;;8.60;;
74291;SDS011;62687;55.738;37.516;2023-04-24T01:28:10;25.15;;;9.27;;
74291;SDS011;62687;55.738;37.516;2023-04-24T01:30:55;23.63;;;9.20;;
74291;SDS011;62687;55.738;37.516;2023-04-24T01:33:41;20.33;;;8.63;;
74291;SDS011;62687;55.738;37.516;2023-04-24T01:36:25;20.88;;;8.82;;
74291;SDS011;62687;55.738;37.516;2023-04-24T01:39:12;15.77;;;7.70;;
74291;SDS011;62687;55.738;37.516;2023-04-24T01:41:57;16.33;;;8.82;;
74291;SDS011;62687;55.738;37.516;2023-04-24T01:44:43;18.50;;;8.43;;
74291;SDS011;62687;55.738;37.516;2023-04-24T01:47:31;19.67;;;7.88;;
74291;SDS011;62687;55.738;37.516;2023-04-24T01:50:29;14.88;;;8.63;;
74291;SDS011;62687;55.738;37.516;2023-04-24T01:53:17;19.55;;;8.98;;
74291;SDS011;62687;55.738;37.516;2023-04-24T01:56:11;15.57;;;9.02;;
74291;SDS011;62687;55.738;37.516;2023-04-24T01:58:56;20.92;;;8.23;;
74291;SDS011;62687;55.738;37.516;2023-04-24T02:01:41;20.98;;;7.60;;
74291;SDS011;62687;55.738;37.516;2023-04-24T02:04:26;16.45;;;8.05;;
74291;SDS011;62687;55.738;37.516;2023-04-24T02:07:10;14.85;;;7.47;;
74291;SDS011;62687;55.738;37.516;2023-04-24T02:10:08;17.05;;;7.75;;
74291;SDS011;62687;55.738;37.516;2023-04-24T02:12:53;17.25;;;8.93;;
74291;SDS011;62687;55.738;37.516;2023-04-24T02:15:43;14.27;;;8.68;;
74291;SDS011;62687;55.738;37.516;2023-04-24T02:21:15;13.85;;;8.25;;
74291;SDS011;62687;55.738;37.516;2023-04-24T02:24:00;17.25;;;8.27;;
74291;SDS011;62687;55.738;37.516;2023-04-24T02:27:06;16.20;;;9.05;;
74291;SDS011;62687;55.738;37.516;2023-04-24T02:30:18;13.00;;;8.38;;
74291;SDS011;62687;55.738;37.516;2023-04-24T02:33:01;11.40;;;8.20;;
74291;SDS011;62687;55.738;37.516;2023-04-24T02:35:47;11.98;;;6.82;;
74291;SDS011;62687;55.738;37.516;2023-04-24T02:38:33;12.15;;;7.82;;
74291;SDS011;62687;55.738;37.516;2023-04-24T02:41:17;16.08;;;8.40;;
74291;SDS011;62687;55.738;37.516;2023-04-24T02:44:02;12.50;;;7.82;;
74291;SDS011;62687;55.738;37.516;2023-04-24T02:46:49;13.82;;;7.70;;
74291;SDS011;62687;55.738;37.516;2023-04-24T02:49:33;14.98;;;7.72;;
74291;SDS011;62687;55.738;37.516;2023-04-24T02:52:17;12.70;;;8.00;;
74291;SDS011;62687;55.738;37.516;2023-04-24T02:55:01;11.57;;;8.00;;
74291;SDS011;62687;55.738;37.516;2023-04-24T02:57:46;16.08;;;8.55;;
74291;SDS011;62687;55.738;37.516;2023-04-24T03:00:30;16.88;;;8.48;;
74291;SDS011;62687;55.738;37.516;2023-04-24T03:03:14;24.85;;;8.93;;
74291;SDS011;62687;55.738;37.516;2023-04-24T03:05:59;17.63;;;8.23;;
74291;SDS011;62687;55.738;37.516;2023-04-24T03:08:43;17.88;;;9.05;;
74291;SDS011;62687;55.738;37.516;2023-04-24T03:11:27;15.90;;;8.68;;
74291;SDS011;62687;55.738;37.516;2023-04-24T03:14:12;17.25;;;8.48;;
74291;SDS011;62687;55.738;37.516;2023-04-24T03:16:56;17.95;;;8.88;;
74291;SDS011;62687;55.738;37.516;2023-04-24T03:19:40;18.10;;;8.75;;
74291;SDS011;62687;55.738;37.516;2023-04-24T03:22:25;13.38;;;7.65;;
74291;SDS011;62687;55.738;37.516;2023-04-24T03:25:09;14.35;;;7.53;;
74291;SDS011;62687;55.738;37.516;2023-04-24T03:27:53;13.02;;;7.45;;
74291;SDS011;62687;55.738;37.516;2023-04-24T03:30:38;14.68;;;7.82;;
74291;SDS011;62687;55.738;37.516;2023-04-24T03:33:23;18.38;;;8.55;;
74291;SDS011;62687;55.738;37.516;2023-04-24T03:36:07;19.00;;;8.60;;
74291;SDS011;62687;55.738;37.516;2023-04-24T03:38:51;15.38;;;7.22;;
74291;SDS011;62687;55.738;37.516;2023-04-24T03:41:35;16.23;;;7.63;;
74291;SDS011;62687;55.738;37.516;2023-04-24T03:44:19;14.25;;;7.78;;
74291;SDS011;62687;55.738;37.516;2023-04-24T03:47:04;14.90;;;6.80;;
74291;SDS011;62687;55.738;37.516;2023-04-24T03:49:48;17.45;;;8.25;;
74291;SDS011;62687;55.738;37.516;2023-04-24T03:52:32;15.13;;;7.63;;
74291;SDS011;62687;55.738;37.516;2023-04-24T03:55:17;21.25;;;8.73;;
74291;SDS011;62687;55.738;37.516;2023-04-24T03:58:01;21.13;;;9.02;;
74291;SDS011;62687;55.738;37.516;2023-04-24T04:00:45;13.38;;;7.30;;
74291;SDS011;62687;55.738;37.516;2023-04-24T04:03:31;20.23;;;8.57;;
74291;SDS011;62687;55.738;37.516;2023-04-24T04:06:15;14.68;;;6.90;;
74291;SDS011;62687;55.738;37.516;2023-04-24T04:08:59;20.02;;;7.82;;
74291;SDS011;62687;55.738;37.516;2023-04-24T04:11:43;17.13;;;7.88;;
74291;SDS011;62687;55.738;37.516;2023-04-24T04:14:27;13.30;;;8.02;;
74291;SDS011;62687;55.738;37.516;2023-04-24T04:17:12;20.05;;;8.18;;
74291;SDS011;62687;55.738;37.516;2023-04-24T04:19:56;18.63;;;7.30;;
74291;SDS011;62687;55.738;37.516;2023-04-24T04:22:40;19.33;;;8.38;;
74291;SDS011;62687;55.738;37.516;2023-04-24T04:25:25;16.63;;;7.38;;
74291;SDS011;62687;55.738;37.516;2023-04-24T04:28:09;15.10;;;7.72;;
74291;SDS011;62687;55.738;37.516;2023-04-24T04:30:53;24.23;;;8.23;;
74291;SDS011;62687;55.738;37.516;2023-04-24T04:33:38;19.58;;;8.13;;
74291;SDS011;62687;55.738;37.516;2023-04-24T04:36:23;17.92;;;7.22;;
74291;SDS011;62687;55.738;37.516;2023-04-24T04:39:07;22.13;;;8.70;;
74291;SDS011;62687;55.738;37.516;2023-04-24T04:41:52;21.08;;;8.20;;
74291;SDS011;62687;55.738;37.516;2023-04-24T04:44:36;13.60;;;8.25;;
74291;SDS011;62687;55.738;37.516;2023-04-24T04:47:20;16.67;;;7.72;;
74291;SDS011;62687;55.738;37.516;2023-04-24T04:50:06;16.60;;;7.70;;
74291;SDS011;62687;55.738;37.516;2023-04-24T04:52:51;14.23;;;8.50;;
74291;SDS011;62687;55.738;37.516;2023-04-24T04:55:35;25.58;;;9.10;;
74291;SDS011;62687;55.738;37.516;2023-04-24T04:58:20;16.00;;;8.32;;
74291;SDS011;62687;55.738;37.516;2023-04-24T05:01:04;22.52;;;8.23;;
74291;SDS011;62687;55.738;37.516;2023-04-24T05:03:48;20.30;;;8.15;;
74291;SDS011;62687;55.738;37.516;2023-04-24T05:06:32;18.33;;;7.30;;
74291;SDS011;62687;55.738;37.516;2023-04-24T05:09:17;21.80;;;7.90;;
74291;SDS011;62687;55.738;37.516;2023-04-24T05:12:02;18.52;;;8.65;;
74291;SDS011;62687;55.738;37.516;2023-04-24T05:14:46;19.63;;;8.60;;
74291;SDS011;62687;55.738;37.516;2023-04-24T05:17:30;18.55;;;7.70;;
74291;SDS011;62687;55.738;37.516;2023-04-24T05:20:15;22.98;;;8.40;;
74291;SDS011;62687;55.738;37.516;2023-04-24T05:22:59;22.25;;;8.32;;
74291;SDS011;62687;55.738;37.516;2023-04-24T05:25:43;26.70;;;8.18;;
74291;SDS011;62687;55.738;37.516;2023-04-24T05:28:27;19.25;;;7.90;;
74291;SDS011;62687;55.738;37.516;2023-04-24T05:31:11;16.98;;;7.68;;
74291;SDS011;62687;55.738;37.516;2023-04-24T05:33:55;13.52;;;7.10;;
74291;SDS011;62687;55.738;37.516;2023-04-24T05:36:39;15.23;;;7.65;;
74291;SDS011;62687;55.738;37.516;2023-04-24T05:39:24;14.88;;;7.13;;
74291;SDS011;62687;55.738;37.516;2023-04-24T05:42:08;16.55;;;7.28;;
74291;SDS011;62687;55.738;37.516;2023-04-24T05:44:52;15.88;;;6.60;;
74291;SDS011;62687;55.738;37.516;2023-04-24T05:47:38;24.08;;;7.90;;
74291;SDS011;62687;55.738;37.516;2023-04-24T05:50:22;25.73;;;7.32;;
74291;SDS011;62687;55.738;37.516;2023-04-24T05:53:06;16.98;;;7.30;;
74291;SDS011;62687;55.738;37.516;2023-04-24T05:58:25;21.88;;;7.20;;
74291;SDS011;62687;55.738;37.516;2023-04-24T06:01:09;18.27;;;7.07;;
74291;SDS011;62687;55.738;37.516;2023-04-24T06:03:53;20.02;;;6.25;;
74291;SDS011;62687;55.738;37.516;2023-04-24T06:06:37;14.10;;;5.80;;
74291;SDS011;62687;55.738;37.516;2023-04-24T06:09:22;25.40;;;6.60;;
74291;SDS011;62687;55.738;37.516;2023-04-24T06:12:06;20.10;;;6.22;;
74291;SDS011;62687;55.738;37.516;2023-04-24T06:14:51;13.90;;;5.85;;
74291;SDS011;62687;55.738;37.516;2023-04-24T06:17:36;13.38;;;5.55;;
74291;SDS011;62687;55.738;37.516;2023-04-24T06:20:20;13.75;;;5.10;;
74291;SDS011;62687;55.738;37.516;2023-04-24T06:23:04;18.27;;;5.57;;
74291;SDS011;62687;55.738;37.516;2023-04-24T06:25:48;13.48;;;5.18;;
74291;SDS011;62687;55.738;37.516;2023-04-24T06:28:32;12.65;;;5.85;;
74291;SDS011;62687;55.738;37.516;2023-04-24T06:31:16;12.98;;;5.28;;
74291;SDS011;62687;55.738;37.516;2023-04-24T06:34:01;14.98;;;6.32;;
74291;SDS011;62687;55.738;37.516;2023-04-24T06:36:46;14.25;;;6.00;;
74291;SDS011;62687;55.738;37.516;2023-04-24T06:39:30;17.35;;;5.63;;
74291;SDS011;62687;55.738;37.516;2023-04-24T06:42:14;14.55;;;5.47;;
74291;SDS011;62687;55.738;37.516;2023-04-24T06:44:59;13.23;;;4.60;;
74291;SDS011;62687;55.738;37.516;2023-04-24T06:47:43;14.27;;;5.80;;
74291;SDS011;62687;55.738;37.516;2023-04-24T06:50:27;15.98;;;5.78;;
74291;SDS011;62687;55.738;37.516;2023-04-24T06:53:12;26.98;;;6.57;;
74291;SDS011;62687;55.738;37.516;2023-04-24T06:55:58;11.80;;;4.72;;
74291;SDS011;62687;55.738;37.516;2023-04-24T06:58:42;11.32;;;5.20;;
74291;SDS011;62687;55.738;37.516;2023-04-24T07:01:27;10.40;;;4.88;;
74291;SDS011;62687;55.738;37.516;2023-04-24T07:04:10;12.30;;;5.38;;
74291;SDS011;62687;55.738;37.516;2023-04-24T07:06:56;14.23;;;5.38;;
74291;SDS011;62687;55.738;37.516;2023-04-24T07:09:41;39.75;;;6.80;;
74291;SDS011;62687;55.738;37.516;2023-04-24T07:15:09;12.65;;;5.18;;
74291;SDS011;62687;55.738;37.516;2023-04-24T07:17:54;11.40;;;5.38;;
74291;SDS011;62687;55.738;37.516;2023-04-24T07:20:37;11.45;;;4.50;;
74291;SDS011;62687;55.738;37.516;2023-04-24T07:23:22;8.80;;;4.20;;
74291;SDS011;62687;55.738;37.516;2023-04-24T07:26:06;10.30;;;4.45;;
74291;SDS011;62687;55.738;37.516;2023-04-24T07:28:50;10.43;;;5.43;;
74291;SDS011;62687;55.738;37.516;2023-04-24T07:31:34;10.43;;;4.93;;
74291;SDS011;62687;55.738;37.516;2023-04-24T07:34:18;10.02;;;5.20;;
74291;SDS011;62687;55.738;37.516;2023-04-24T07:37:02;7.50;;;4.20;;
74291;SDS011;62687;55.738;37.516;2023-04-24T07:39:48;22.15;;;4.90;;
74291;SDS011;62687;55.738;37.516;2023-04-24T07:42:32;9.40;;;3.80;;
74291;SDS011;62687;55.738;37.516;2023-04-24T07:45:18;10.27;;;4.68;;
74291;SDS011;62687;55.738;37.516;2023-04-24T07:48:02;7.95;;;4.60;;
74291;SDS011;62687;55.738;37.516;2023-04-24T07:50:46;9.52;;;4.35;;
74291;SDS011;62687;55.738;37.516;2023-04-24T07:53:31;10.68;;;4.50;;
74291;SDS011;62687;55.738;37.516;2023-04-24T07:56:15;10.57;;;4.20;;
74291;SDS011;62687;55.738;37.516;2023-04-24T07:59:00;10.23;;;4.03;;
74291;SDS011;62687;55.738;37.516;2023-04-24T08:01:45;6.38;;;4.63;;
74291;SDS011;62687;55.738;37.516;2023-04-24T08:04:29;10.88;;;4.45;;
74291;SDS011;62687;55.738;37.516;2023-04-24T08:07:13;10.18;;;4.82;;
74291;SDS011;62687;55.738;37.516;2023-04-24T08:09:58;6.28;;;4.07;;
74291;SDS011;62687;55.738;37.516;2023-04-24T08:12:43;6.78;;;4.22;;
74291;SDS011;62687;55.738;37.516;2023-04-24T08:15:27;6.05;;;3.63;;
74291;SDS011;62687;55.738;37.516;2023-04-24T08:18:12;10.10;;;4.60;;
74291;SDS011;62687;55.738;37.516;2023-04-24T08:20:57;6.53;;;4.00;;
74291;SDS011;62687;55.738;37.516;2023-04-24T08:23:45;7.70;;;4.10;;
74291;SDS011;62687;55.738;37.516;2023-04-24T08:26:30;15.05;;;4.88;;
74291;SDS011;62687;55.738;37.516;2023-04-24T08:29:15;6.97;;;3.75;;
74291;SDS011;62687;55.738;37.516;2023-04-24T08:32:00;7.28;;;4.35;;
74291;SDS011;62687;55.738;37.516;2023-04-24T08:34:44;13.77;;;4.25;;
74291;SDS011;62687;55.738;37.516;2023-04-24T08:37:28;7.22;;;4.18;;
74291;SDS011;62687;55.738;37.516;2023-04-24T08:40:13;6.53;;;4.38;;
74291;SDS011;62687;55.738;37.516;2023-04-24T08:42:59;9.07;;;3.90;;
74291;SDS011;62687;55.738;37.516;2023-04-24T08:45:44;9.15;;;4.05;;
74291;SDS011;62687;55.738;37.516;2023-04-24T08:51:12;12.52;;;4.70;;
74291;SDS011;62687;55.738;37.516;2023-04-24T08:53:57;10.32;;;4.25;;
74291;SDS011;62687;55.738;37.516;2023-04-24T08:56:43;7.03;;;4.25;;
74291;SDS011;62687;55.738;37.516;2023-04-24T08:59:28;7.60;;;4.00;;
74291;SDS011;62687;55.738;37.516;2023-04-24T09:02:13;7.80;;;4.32;;
74291;SDS011;62687;55.738;37.516;2023-04-24T09:04:58;8.07;;;4.15;;
74291;SDS011;62687;55.738;37.516;2023-04-24T09:07:49;7.70;;;3.90;;
74291;SDS011;62687;55.738;37.516;2023-04-24T09:10:40;8.48;;;3.70;;
74291;SDS011;62687;55.738;37.516;2023-04-24T09:13:24;9.25;;;4.72;;
74291;SDS011;62687;55.738;37.516;2023-04-24T09:16:10;7.38;;;4.00;;
74291;SDS011;62687;55.738;37.516;2023-04-24T09:18:55;5.65;;;3.72;;
74291;SDS011;62687;55.738;37.516;2023-04-24T09:21:39;6.63;;;4.55;;
74291;SDS011;62687;55.738;37.516;2023-04-24T09:24:25;8.27;;;4.30;;
74291;SDS011;62687;55.738;37.516;2023-04-24T09:27:10;7.25;;;4.10;;
74291;SDS011;62687;55.738;37.516;2023-04-24T09:29:56;8.23;;;4.75;;
74291;SDS011;62687;55.738;37.516;2023-04-24T09:32:40;56.40;;;8.25;;
74291;SDS011;62687;55.738;37.516;2023-04-24T09:35:25;12.27;;;4.30;;
74291;SDS011;62687;55.738;37.516;2023-04-24T09:38:09;15.52;;;4.40;;
74291;SDS011;62687;55.738;37.516;2023-04-24T09:40:54;6.85;;;4.00;;
74291;SDS011;62687;55.738;37.516;2023-04-24T09:43:39;10.10;;;4.53;;
74291;SDS011;62687;55.738;37.516;2023-04-24T09:46:29;7.00;;;4.13;;
74291;SDS011;62687;55.738;37.516;2023-04-24T09:49:21;10.82;;;4.25;;
74291;SDS011;62687;55.738;37.516;2023-04-24T09:52:17;7.50;;;3.70;;
74291;SDS011;62687;55.738;37.516;2023-04-24T09:55:01;5.18;;;3.42;;
74291;SDS011;62687;55.738;37.516;2023-04-24T09:57:51;7.88;;;4.03;;
74291;SDS011;62687;55.738;37.516;2023-04-24T10:00:38;11.20;;;4.57;;
74291;SDS011;62687;55.738;37.516;2023-04-24T10:03:25;8.60;;;3.85;;
74291;SDS011;62687;55.738;37.516;2023-04-24T10:06:11;5.93;;;3.15;;
74291;SDS011;62687;55.738;37.516;2023-04-24T10:11:22;7.63;;;3.08;;
74291;SDS011;62687;55.738;37.516;2023-04-24T10:14:08;10.10;;;3.55;;
74291;SDS011;62687;55.738;37.516;2023-04-24T10:16:54;8.45;;;4.05;;
74291;SDS011;62687;55.738;37.516;2023-04-24T10:19:40;7.53;;;3.78;;
74291;SDS011;62687;55.738;37.516;2023-04-24T10:22:24;5.65;;;3.60;;
74291;SDS011;62687;55.738;37.516;2023-04-24T10:25:10;9.43;;;3.63;;
74291;SDS011;62687;55.738;37.516;2023-04-24T10:27:56;6.53;;;3.67;;
74291;SDS011;62687;55.738;37.516;2023-04-24T10:30:42;12.98;;;4.45;;
74291;SDS011;62687;55.738;37.516;2023-04-24T10:33:27;6.22;;;3.75;;
74291;SDS011;62687;55.738;37.516;2023-04-24T10:36:14;11.95;;;4.13;;
74291;SDS011;62687;55.738;37.516;2023-04-24T10:39:02;6.97;;;3.42;;
74291;SDS011;62687;55.738;37.516;2023-04-24T10:41:50;15.25;;;4.22;;
74291;SDS011;62687;55.738;37.516;2023-04-24T10:44:37;5.55;;;3.10;;
74291;SDS011;62687;55.738;37.516;2023-04-24T10:47:21;4.18;;;3.13;;
74291;SDS011;62687;55.738;37.516;2023-04-24T10:50:08;5.93;;;3.25;;
74291;SDS011;62687;55.738;37.516;2023-04-24T10:52:55;6.80;;;3.90;;
74291;SDS011;62687;55.738;37.516;2023-04-24T10:58:36;5.75;;;3.90;;
74291;SDS011;62687;55.738;37.516;2023-04-24T11:01:29;5.03;;;3.72;;
74291;SDS011;62687;55.738;37.516;2023-04-24T11:04:28;10.55;;;4.30;;
74291;SDS011;62687;55.738;37.516;2023-04-24T11:07:14;7.82;;;4.05;;
74291;SDS011;62687;55.738;37.516;2023-04-24T11:09:58;10.02;;;3.97;;
74291;SDS011;62687;55.738;37.516;2023-04-24T11:12:44;11.23;;;3.78;;
74291;SDS011;62687;55.738;37.516;2023-04-24T11:15:28;21.13;;;3.83;;
74291;SDS011;62687;55.738;37.516;2023-04-24T11:18:15;12.23;;;3.80;;
74291;SDS011;62687;55.738;37.516;2023-04-24T11:21:02;7.35;;;3.67;;
74291;SDS011;62687;55.738;37.516;2023-04-24T11:23:54;6.00;;;3.70;;
74291;SDS011;62687;55.738;37.516;2023-04-24T11:26:39;11.38;;;3.55;;
74291;SDS011;62687;55.738;37.516;2023-04-24T11:32:37;8.63;;;3.67;;
74291;SDS011;62687;55.738;37.516;2023-04-24T11:35:25;15.00;;;4.45;;
74291;SDS011;62687;55.738;37.516;2023-04-24T11:38:11;12.13;;;3.85;;
74291;SDS011;62687;55.738;37.516;2023-04-24T11:43:39;4.75;;;3.40;;
74291;SDS011;62687;55.738;37.516;2023-04-24T11:46:30;8.27;;;3.45;;
74291;SDS011;62687;55.738;37.516;2023-04-24T11:51:59;7.75;;;3.97;;
74291;SDS011;62687;55.738;37.516;2023-04-24T11:54:48;10.07;;;4.05;;
74291;SDS011;62687;55.738;37.516;2023-04-24T11:57:34;10.82;;;3.78;;
74291;SDS011;62687;55.738;37.516;2023-04-24T12:00:20;11.95;;;4.97;;
74291;SDS011;62687;55.738;37.516;2023-04-24T12:03:09;6.35;;;3.40;;
74291;SDS011;62687;55.738;37.516;2023-04-24T12:06:07;6.78;;;3.42;;
74291;SDS011;62687;55.738;37.516;2023-04-24T12:08:52;10.57;;;3.58;;
74291;SDS011;62687;55.738;37.516;2023-04-24T12:11:38;13.90;;;3.42;;
74291;SDS011;62687;55.738;37.516;2023-04-24T12:14:50;9.73;;;3.58;;
74291;SDS011;62687;55.738;37.516;2023-04-24T12:17:37;5.85;;;3.40;;
74291;SDS011;62687;55.738;37.516;2023-04-24T12:20:29;10.32;;;3.70;;
74291;SDS011;62687;55.738;37.516;2023-04-24T12:23:14;7.38;;;3.30;;
74291;SDS011;62687;55.738;37.516;2023-04-24T12:25:59;5.57;;;3.65;;
74291;SDS011;62687;55.738;37.516;2023-04-24T12:28:47;7.82;;;3.72;;
74291;SDS011;62687;55.738;37.516;2023-04-24T12:31:33;10.65;;;4.20;;
74291;SDS011;62687;55.738;37.516;2023-04-24T12:34:18;5.97;;;3.33;;
74291;SDS011;62687;55.738;37.516;2023-04-24T12:37:10;6.72;;;3.45;;
74291;SDS011;62687;55.738;37.516;2023-04-24T12:40:01;9.63;;;4.03;;
74291;SDS011;62687;55.738;37.516;2023-04-24T12:42:46;10.15;;;3.38;;
74291;SDS011;62687;55.738;37.516;2023-04-24T12:45:32;8.25;;;3.88;;
74291;SDS011;62687;55.738;37.516;2023-04-24T12:48:16;9.00;;;3.35;;
74291;SDS011;62687;55.738;37.516;2023-04-24T12:51:01;5.18;;;3.30;;
74291;SDS011;62687;55.738;37.516;2023-04-24T12:53:45;5.63;;;3.55;;
74291;SDS011;62687;55.738;37.516;2023-04-24T12:56:29;13.35;;;3.67;;
74291;SDS011;62687;55.738;37.516;2023-04-24T12:59:14;5.47;;;3.13;;
74291;SDS011;62687;55.738;37.516;2023-04-24T13:04:46;4.00;;;2.55;;
74291;SDS011;62687;55.738;37.516;2023-04-24T13:07:30;3.63;;;2.67;;
74291;SDS011;62687;55.738;37.516;2023-04-24T13:12:59;4.97;;;2.75;;
74291;SDS011;62687;55.738;37.516;2023-04-24T13:15:43;6.72;;;2.53;;
74291;SDS011;62687;55.738;37.516;2023-04-24T13:18:27;12.57;;;3.28;;
74291;SDS011;62687;55.738;37.516;2023-04-24T13:21:09;11.20;;;3.00;;
74291;SDS011;62687;55.738;37.516;2023-04-24T13:23:53;8.05;;;2.80;;
74291;SDS011;62687;55.738;37.516;2023-04-24T13:26:37;4.97;;;3.05;;
74291;SDS011;62687;55.738;37.516;2023-04-24T13:32:06;5.22;;;2.67;;
74291;SDS011;62687;55.738;37.516;2023-04-24T13:34:50;6.72;;;2.22;;
74291;SDS011;62687;55.738;37.516;2023-04-24T13:37:35;7.30;;;2.50;;
74291;SDS011;62687;55.738;37.516;2023-04-24T13:40:19;8.77;;;3.10;;
74291;SDS011;62687;55.738;37.516;2023-04-24T13:43:03;7.93;;;2.65;;
74291;SDS011;62687;55.738;37.516;2023-04-24T13:45:47;15.18;;;3.30;;
74291;SDS011;62687;55.738;37.516;2023-04-24T13:48:31;12.40;;;3.63;;
74291;SDS011;62687;55.738;37.516;2023-04-24T13:51:15;10.77;;;3.20;;
74291;SDS011;62687;55.738;37.516;2023-04-24T13:54:00;7.60;;;2.97;;
74291;SDS011;62687;55.738;37.516;2023-04-24T13:56:44;6.55;;;2.85;;
74291;SDS011;62687;55.738;37.516;2023-04-24T14:02:12;6.20;;;3.22;;
74291;SDS011;62687;55.738;37.516;2023-04-24T14:04:57;5.25;;;2.78;;
74291;SDS011;62687;55.738;37.516;2023-04-24T14:07:41;4.15;;;2.75;;
74291;SDS011;62687;55.738;37.516;2023-04-24T14:10:25;8.95;;;3.13;;
74291;SDS011;62687;55.738;37.516;2023-04-24T14:13:10;7.95;;;3.15;;
74291;SDS011;62687;55.738;37.516;2023-04-24T14:15:55;11.45;;;3.30;;
74291;SDS011;62687;55.738;37.516;2023-04-24T14:18:39;11.55;;;3.10;;
74291;SDS011;62687;55.738;37.516;2023-04-24T14:24:08;5.90;;;2.88;;
74291;SDS011;62687;55.738;37.516;2023-04-24T14:29:36;6.50;;;2.80;;
74291;SDS011;62687;55.738;37.516;2023-04-24T14:35:05;5.38;;;2.63;;
74291;SDS011;62687;55.738;37.516;2023-04-24T14:37:50;8.80;;;3.08;;
74291;SDS011;62687;55.738;37.516;2023-04-24T14:40:35;9.02;;;3.33;;
74291;SDS011;62687;55.738;37.516;2023-04-24T14:43:19;15.60;;;3.20;;
74291;SDS011;62687;55.738;37.516;2023-04-24T14:46:03;5.20;;;2.40;;
74291;SDS011;62687;55.738;37.516;2023-04-24T14:48:48;9.05;;;2.95;;
74291;SDS011;62687;55.738;37.516;2023-04-24T14:51:32;14.20;;;3.28;;
74291;SDS011;62687;55.738;37.516;2023-04-24T14:54:17;12.15;;;3.88;;
74291;SDS011;62687;55.738;37.516;2023-04-24T14:57:01;8.52;;;2.80;;
74291;SDS011;62687;55.738;37.516;2023-04-24T14:59:45;5.22;;;2.67;;
74291;SDS011;62687;55.738;37.516;2023-04-24T15:02:30;6.68;;;3.60;;
74291;SDS011;62687;55.738;37.516;2023-04-24T15:05:14;6.03;;;3.20;;
74291;SDS011;62687;55.738;37.516;2023-04-24T15:10:43;7.80;;;3.28;;
74291;SDS011;62687;55.738;37.516;2023-04-24T15:13:28;7.40;;;3.17;;
74291;SDS011;62687;55.738;37.516;2023-04-24T15:18:57;6.78;;;2.80;;
74291;SDS011;62687;55.738;37.516;2023-04-24T15:21:41;9.02;;;3.00;;
74291;SDS011;62687;55.738;37.516;2023-04-24T15:24:26;7.63;;;3.15;;
74291;SDS011;62687;55.738;37.516;2023-04-24T15:29:55;12.25;;;2.75;;
74291;SDS011;62687;55.738;37.516;2023-04-24T15:32:41;17.90;;;4.85;;
74291;SDS011;62687;55.738;37.516;2023-04-24T15:35:25;7.35;;;2.75;;
74291;SDS011;62687;55.738;37.516;2023-04-24T15:38:09;10.05;;;3.05;;
74291;SDS011;62687;55.738;37.516;2023-04-24T15:40:53;8.45;;;3.10;;
74291;SDS011;62687;55.738;37.516;2023-04-24T15:46:22;5.55;;;2.88;;
74291;SDS011;62687;55.738;37.516;2023-04-24T15:49:06;4.47;;;2.90;;
74291;SDS011;62687;55.738;37.516;2023-04-24T15:51:50;4.45;;;2.65;;
74291;SDS011;62687;55.738;37.516;2023-04-24T15:54:34;5.75;;;2.78;;
74291;SDS011;62687;55.738;37.516;2023-04-24T15:57:19;7.30;;;2.88;;
74291;SDS011;62687;55.738;37.516;2023-04-24T16:00:04;4.90;;;2.60;;
74291;SDS011;62687;55.738;37.516;2023-04-24T16:02:55;3.70;;;2.47;;
74291;SDS011;62687;55.738;37.516;2023-04-24T16:05:39;6.15;;;2.92;;
74291;SDS011;62687;55.738;37.516;2023-04-24T16:08:23;11.13;;;2.95;;
74291;SDS011;62687;55.738;37.516;2023-04-24T16:11:07;7.03;;;3.17;;
74291;SDS011;62687;55.738;37.516;2023-04-24T16:13:51;9.65;;;2.65;;
74291;SDS011;62687;55.738;37.516;2023-04-24T16:16:35;7.55;;;2.90;;
74291;SDS011;62687;55.738;37.516;2023-04-24T16:19:20;10.25;;;2.78;;
74291;SDS011;62687;55.738;37.516;2023-04-24T16:22:04;5.70;;;2.88;;
74291;SDS011;62687;55.738;37.516;2023-04-24T16:24:48;9.00;;;3.28;;
74291;SDS011;62687;55.738;37.516;2023-04-24T16:27:33;8.77;;;2.88;;
74291;SDS011;62687;55.738;37.516;2023-04-24T16:30:17;9.15;;;3.22;;
74291;SDS011;62687;55.738;37.516;2023-04-24T16:33:02;12.18;;;2.97;;
74291;SDS011;62687;55.738;37.516;2023-04-24T16:35:49;7.80;;;3.25;;
74291;SDS011;62687;55.738;37.516;2023-04-24T16:38:34;8.07;;;2.47;;
74291;SDS011;62687;55.738;37.516;2023-04-24T16:41:18;9.48;;;3.08;;
74291;SDS011;62687;55.738;37.516;2023-04-24T16:44:03;12.95;;;3.53;;
74291;SDS011;62687;55.738;37.516;2023-04-24T16:46:47;8.23;;;3.55;;
74291;SDS011;62687;55.738;37.516;2023-04-24T16:49:31;12.15;;;3.33;;
74291;SDS011;62687;55.738;37.516;2023-04-24T16:52:16;15.43;;;3.95;;
74291;SDS011;62687;55.738;37.516;2023-04-24T16:55:00;10.55;;;3.92;;
74291;SDS011;62687;55.738;37.516;2023-04-24T16:57:44;14.02;;;4.43;;
74291;SDS011;62687;55.738;37.516;2023-04-24T17:00:28;8.65;;;3.63;;
74291;SDS011;62687;55.738;37.516;2023-04-24T17:03:12;17.02;;;3.80;;
74291;SDS011;62687;55.738;37.516;2023-04-24T17:05:56;13.77;;;4.00;;
74291;SDS011;62687;55.738;37.516;2023-04-24T17:08:40;9.13;;;3.80;;